Time;durP1;ratioP1;P1;durP2;ratioP2;P2;SDS_P1;SDS_P2;PMS_P1;PMS_P2;Temp;Humidity;BMP_temperature;BMP_pressure;BME280_temperature;BME280_humidity;BME280_pressure;Samples;Min_cycle;Max_cycle;Signal;HPM_P1;HPM_P2
2023/07/10 03:44:13;;;;;;;5.13;3.08;;;;;;;;;;12852262;23;20020;-91
2023/07/10 03:49:17;;;;;;;4.70;3.50;;;;;;;;;;12824353;23;20055;-91
2023/07/10 03:54:22;;;;;;;7.03;4.95;;;;;;;;;;12850943;23;20637;-91
2023/07/10 03:59:27;;;;;;;6.65;5.10;;;;;;;;;;12824927;23;20483;-91
2023/07/10 04:04:31;;;;;;;6.70;5.10;;;;;;;;;;12825470;23;20029;-92
2023/07/10 04:09:35;;;;;;;7.40;5.22;;;;;;;;;;12824339;23;20055;-91
2023/07/10 04:14:40;;;;;;;7.88;5.78;;;;;;;;;;12824167;23;20127;-90
2023/07/10 04:19:45;;;;;;;6.63;5.43;;;;;;;;;;12824016;23;20025;-91
2023/07/10 04:25:16;;;;;;;;;;;;;;;;;;;;;
2023/07/10 04:30:46;;;;;;;9.43;6.50;;;;;;;;;;12855376;23;20110;-93
2023/07/10 05:24:14;;;;;;;10.50;8.27;;;;;;;;;;12858198;23;20421;-88
2023/07/10 05:29:17;;;;;;;8.82;7.63;;;;;;;;;;12848615;23;20037;-88
2023/07/10 05:34:23;;;;;;;9.57;6.18;;;;;;;;;;12820820;23;20024;-88
2023/07/10 05:39:30;;;;;;;7.40;6.13;;;;;;;;;;12859914;23;20091;-87
2023/07/10 05:44:35;;;;;;;9.18;7.43;;;;;;;;;;12844768;23;20024;-86
2023/07/10 05:49:39;;;;;;;10.30;7.57;;;;;;;;;;12819372;23;20035;-85
2023/07/10 05:54:43;;;;;;;20.67;14.95;;;;;;;;;;12844752;23;20024;-87
2023/07/10 05:59:47;;;;;;;13.00;10.55;;;;;;;;;;12819284;23;20055;-86
2023/07/10 06:04:50;;;;;;;10.93;7.80;;;;;;;;;;12855359;23;20073;-86
2023/07/10 06:09:55;;;;;;;8.95;7.32;;;;;;;;;;12818168;23;20021;-86
2023/07/10 06:14:58;;;;;;;7.97;5.75;;;;;;;;;;12816234;23;20131;-87
2023/07/10 06:20:02;;;;;;;10.00;5.95;;;;;;;;;;12817165;23;20071;-88
2023/07/10 06:25:08;;;;;;;7.37;5.03;;;;;;;;;;12846267;23;20040;-88
2023/07/10 06:30:12;;;;;;;9.30;4.57;;;;;;;;;;12819252;23;20035;-88
2023/07/10 06:35:16;;;;;;;7.63;5.18;;;;;;;;;;12819257;23;20411;-88
2023/07/10 06:40:21;;;;;;;8.32;5.03;;;;;;;;;;12817826;23;20086;-87
2023/07/10 06:45:24;;;;;;;8.73;5.47;;;;;;;;;;12817634;23;20051;-87
2023/07/10 06:50:28;;;;;;;8.65;5.63;;;;;;;;;;12818957;23;20347;-88
2023/07/10 06:55:33;;;;;;;7.28;5.32;;;;;;;;;;12846038;23;20518;-88
2023/07/10 07:00:37;;;;;;;7.70;5.43;;;;;;;;;;12821184;23;20540;-90
2023/07/10 07:05:42;;;;;;;6.70;3.70;;;;;;;;;;12820552;23;20028;-88
2023/07/10 07:10:47;;;;;;;5.17;3.43;;;;;;;;;;12817815;23;20021;-87
2023/07/10 07:15:51;;;;;;;;;;;;;;;;;;12815537;23;20124;-89
2023/07/10 07:20:54;;;;;;;3.83;3.17;;;;;;;;;;12820693;23;19965;-88
2023/07/10 07:26:00;;;;;;;9.93;7.25;;;;;;;;;;12820939;23;20024;-89
2023/07/10 07:31:06;;;;;;;5.10;4.30;;;;;;;;;;12822791;23;20032;-88
2023/07/10 07:36:09;;;;;;;10.67;5.40;;;;;;;;;;12821450;23;20024;-89
2023/07/10 07:41:14;;;;;;;7.95;3.97;;;;;;;;;;12822341;23;20403;-89
2023/07/10 07:46:18;;;;;;;;;;;;;;;;;;12824599;23;20024;-88
2023/07/10 07:51:22;;;;;;;4.32;3.35;;;;;;;;;;12864307;23;19922;-92
2023/07/10 07:56:27;;;;;;;5.25;3.60;;;;;;;;;;12841773;23;20059;-92
2023/07/10 08:01:33;;;;;;;4.53;3.50;;;;;;;;;;12837934;23;20109;-94
2023/07/10 08:06:53;;;;;;;8.10;4.43;;;;;;;;;;12844842;23;20029;-93
2023/07/10 08:12:01;;;;;;;4.95;3.90;;;;;;;;;;12885232;23;20224;-93
2023/07/10 08:17:07;;;;;;;5.68;4.63;;;;;;;;;;12888085;23;20100;-94
2023/07/10 08:22:11;;;;;;;5.90;4.13;;;;;;;;;;12879406;23;20029;-92
2023/07/10 08:27:16;;;;;;;5.32;4.18;;;;;;;;;;12843421;23;20068;-91
2023/07/10 08:32:20;;;;;;;5.50;3.50;;;;;;;;;;12871872;23;20081;-92
2023/07/10 08:38:14;;;;;;;6.63;5.10;;;;;;;;;;12854081;23;20044;-89
2023/07/10 09:39:53;;;;;;;6.43;4.93;;;;;;;;;;12876136;23;20083;-90
2023/07/10 09:44:57;;;;;;;10.82;6.82;;;;;;;;;;12827506;23;20016;-89
2023/07/10 09:50:03;;;;;;;6.22;4.50;;;;;;;;;;12828005;23;20463;-90
2023/07/10 09:55:16;;;;;;;7.50;5.65;;;;;;;;;;12828977;23;20714;-90
2023/07/10 10:00:21;;;;;;;5.50;4.43;;;;;;;;;;12828166;23;20025;-92
2023/07/10 10:05:25;;;;;;;8.45;7.00;;;;;;;;;;12827239;23;20249;-92
2023/07/10 10:10:32;;;;;;;6.47;4.65;;;;;;;;;;12826258;23;20028;-91
2023/07/10 10:15:45;;;;;;;5.55;4.60;;;;;;;;;;12825747;23;20024;-92
2023/07/10 10:20:49;;;;;;;7.90;4.20;;;;;;;;;;12827109;23;20040;-89
2023/07/10 10:25:57;;;;;;;6.10;4.35;;;;;;;;;;12825410;23;20070;-89
2023/07/10 10:31:07;;;;;;;5.50;3.47;;;;;;;;;;12825886;23;20079;-89
2023/07/10 10:55:31;;;;;;;5.65;3.08;;;;;;;;;;12848136;22;20421;-89
2023/07/10 11:00:47;;;;;;;3.55;2.97;;;;;;;;;;12861376;23;20024;-88
2023/07/10 11:05:53;;;;;;;3.70;2.95;;;;;;;;;;12911710;22;20027;-86
2023/07/10 11:10:59;;;;;;;4.18;3.25;;;;;;;;;;12884261;22;20028;-91
2023/07/10 11:16:04;;;;;;;3.90;2.95;;;;;;;;;;12883994;23;20027;-88
2023/07/10 11:21:13;;;;;;;4.45;3.70;;;;;;;;;;12911953;22;20670;-89
2023/07/10 11:26:22;;;;;;;4.40;3.22;;;;;;;;;;12914577;22;20024;-87
2023/07/10 11:31:36;;;;;;;3.42;2.70;;;;;;;;;;12863665;22;20030;-88
2023/07/10 11:36:43;;;;;;;3.93;3.00;;;;;;;;;;12895127;22;20017;-89
2023/07/10 11:42:13;;;;;;;3.65;3.00;;;;;;;;;;12908904;22;20051;-92
2023/07/10 11:47:27;;;;;;;3.72;3.08;;;;;;;;;;12866714;23;20024;-88
2023/07/10 11:52:33;;;;;;;2.45;2.25;;;;;;;;;;12905685;22;20683;-89
2023/07/10 11:57:38;;;;;;;3.55;2.83;;;;;;;;;;12877537;22;20024;-88
2023/07/10 12:02:48;;;;;;;4.53;3.60;;;;;;;;;;12880091;22;20026;-88
2023/07/10 12:07:58;;;;;;;4.07;3.20;;;;;;;;;;12865929;22;20039;-88
2023/07/10 12:13:31;;;;;;;3.45;2.50;;;;;;;;;;12867475;22;20052;-88
2023/07/10 12:19:23;;;;;;;6.57;3.67;;;;;;;;;;12908047;22;20035;-92
2023/07/10 12:24:30;;;;;;;3.97;2.35;;;;;;;;;;12881414;22;20020;-89
2023/07/10 12:29:47;;;;;;;3.38;1.92;;;;;;;;;;12881417;22;20506;-89
2023/07/10 12:34:58;;;;;;;3.40;2.72;;;;;;;;;;12881230;22;20398;-89
2023/07/10 12:40:12;;;;;;;2.95;2.30;;;;;;;;;;12883442;22;20020;-90
2023/07/10 12:45:32;;;;;;;3.45;2.45;;;;;;;;;;12884301;22;20531;-89
2023/07/10 12:50:44;;;;;;;3.10;2.55;;;;;;;;;;12899524;22;20653;-92
2023/07/10 12:55:51;;;;;;;2.33;2.03;;;;;;;;;;12884109;23;20027;-88
2023/07/10 13:01:17;;;;;;;2.13;1.80;;;;;;;;;;12886303;22;20043;-91
2023/07/10 13:06:28;;;;;;;3.03;2.47;;;;;;;;;;12903889;22;20024;-90
2023/07/10 13:17:13;;;;;;;2.03;1.63;;;;;;;;;;12877645;23;20024;-90
2023/07/10 13:22:28;;;;;;;2.80;2.08;;;;;;;;;;12883933;23;20078;-89
2023/07/10 13:28:13;;;;;;;1.95;1.70;;;;;;;;;;12841798;22;20356;-90
2023/07/10 13:33:39;;;;;;;;;;;;;;;;;;;;;
2023/07/10 13:38:49;;;;;;;2.35;1.58;;;;;;;;;;12884397;22;20089;-90
2023/07/10 13:43:53;;;;;;;1.42;1.17;;;;;;;;;;12912623;22;20028;-88
2023/07/10 13:49:18;;;;;;;1.27;1.10;;;;;;;;;;12898703;22;20107;-92
2023/07/10 13:54:24;;;;;;;1.90;1.45;;;;;;;;;;12885986;22;20055;-89
2023/07/10 13:59:29;;;;;;;1.60;1.50;;;;;;;;;;12872545;22;20362;-89
2023/07/10 14:04:39;;;;;;;1.67;1.23;;;;;;;;;;12912481;22;20099;-90
2023/07/10 14:09:47;;;;;;;1.27;1.10;;;;;;;;;;12883327;22;20559;-92
2023/07/10 14:15:06;;;;;;;1.73;1.30;;;;;;;;;;12885358;22;20067;-90
2023/07/10 14:20:23;;;;;;;1.63;1.20;;;;;;;;;;12885239;22;20031;-88
2023/07/10 14:25:30;;;;;;;1.40;1.30;;;;;;;;;;12885407;22;20055;-88
2023/07/10 14:30:34;;;;;;;1.70;1.15;;;;;;;;;;12885400;22;20096;-90
2023/07/10 14:35:42;;;;;;;1.92;1.33;;;;;;;;;;12871971;23;20095;-89
2023/07/10 14:40:47;;;;;;;1.38;1.20;;;;;;;;;;12883700;22;20099;-92
2023/07/10 14:45:58;;;;;;;1.63;1.10;;;;;;;;;;12908480;22;20521;-90
2023/07/10 14:51:09;;;;;;;1.60;1.20;;;;;;;;;;12883600;22;20052;-89
2023/07/10 14:56:16;;;;;;;1.45;0.90;;;;;;;;;;12886147;23;20016;-89
2023/07/10 15:01:24;;;;;;;1.45;1.17;;;;;;;;;;12913592;22;20402;-89
2023/07/10 15:06:38;;;;;;;2.88;1.00;;;;;;;;;;12887683;23;20016;-90
2023/07/10 15:11:50;;;;;;;1.95;1.23;;;;;;;;;;12886069;22;20575;-90
2023/07/10 15:17:00;;;;;;;1.20;1.05;;;;;;;;;;12867999;23;20070;-90
2023/07/10 15:22:15;;;;;;;2.10;1.25;;;;;;;;;;12887056;22;20021;-90
2023/07/10 15:27:35;;;;;;;3.22;1.20;;;;;;;;;;12890330;23;20016;-89
2023/07/10 15:38:09;;;;;;;1.20;1.10;;;;;;;;;;12856119;22;20016;-89
2023/07/10 15:43:24;;;;;;;3.38;1.95;;;;;;;;;;12899191;22;20020;-89
2023/07/10 15:48:28;;;;;;;1.40;1.10;;;;;;;;;;12885147;22;20580;-92
2023/07/10 15:53:36;;;;;;;;;;;;;;;;;;12884872;22;20024;-91
2023/07/10 15:58:40;;;;;;;1.48;1.17;;;;;;;;;;12884098;22;19943;-90
2023/07/10 16:03:44;;;;;;;1.63;1.13;;;;;;;;;;12884167;22;20024;-90
2023/07/10 16:08:49;;;;;;;1.45;0.95;;;;;;;;;;12910823;22;20523;-90
2023/07/10 16:13:53;;;;;;;1.50;0.90;;;;;;;;;;12885002;22;20030;-88
2023/07/10 16:19:02;;;;;;;1.63;0.95;;;;;;;;;;12879238;22;20028;-88
2023/07/10 16:24:14;;;;;;;0.90;0.73;;;;;;;;;;12876279;22;20035;-88
2023/07/10 16:29:20;;;;;;;1.07;0.90;;;;;;;;;;12878197;22;20399;-88
2023/07/10 16:34:23;;;;;;;1.58;0.88;;;;;;;;;;12869246;22;20027;-88
2023/07/10 16:39:29;;;;;;;1.40;1.02;;;;;;;;;;12907420;22;20024;-87
2023/07/10 16:44:33;;;;;;;1.75;0.98;;;;;;;;;;12862455;22;20028;-88
2023/07/10 16:49:37;;;;;;;1.67;0.90;;;;;;;;;;12895356;22;20024;-86
2023/07/10 16:54:41;;;;;;;1.48;0.80;;;;;;;;;;12869187;22;20047;-87
2023/07/10 16:59:45;;;;;;;1.65;1.13;;;;;;;;;;12872647;22;20039;-88
2023/07/10 17:04:50;;;;;;;0.68;0.60;;;;;;;;;;12876040;22;20471;-89
2023/07/10 17:09:55;;;;;;;1.33;0.80;;;;;;;;;;12883834;22;20027;-89
2023/07/10 17:15:03;;;;;;;1.50;0.90;;;;;;;;;;12884418;22;20647;-90
2023/07/10 17:20:09;;;;;;;1.40;0.80;;;;;;;;;;12909970;22;20062;-93
2023/07/10 17:25:17;;;;;;;1.40;0.90;;;;;;;;;;12912956;22;20026;-89
2023/07/10 17:30:20;;;;;;;2.67;0.90;;;;;;;;;;12868203;22;20414;-88
2023/07/10 17:35:27;;;;;;;1.15;0.80;;;;;;;;;;12911011;22;20055;-90
2023/07/10 17:40:32;;;;;;;0.50;0.50;;;;;;;;;;12883807;22;20063;-91
2023/07/10 17:45:38;;;;;;;0.95;0.80;;;;;;;;;;12884473;23;20084;-91
2023/07/10 17:50:45;;;;;;;0.70;0.60;;;;;;;;;;12911211;22;20032;-91
2023/07/10 17:55:51;;;;;;;1.08;0.57;;;;;;;;;;12882168;23;20070;-92
2023/07/10 18:00:55;;;;;;;1.80;0.98;;;;;;;;;;12888511;22;20486;-88
2023/07/10 18:05:59;;;;;;;1.40;0.82;;;;;;;;;;12881433;23;20024;-88
2023/07/10 18:11:16;;;;;;;0.85;0.80;;;;;;;;;;12885725;22;20024;-92
2023/07/10 18:16:23;;;;;;;1.55;0.80;;;;;;;;;;12882591;23;20042;-88
2023/07/10 18:21:31;;;;;;;1.05;0.93;;;;;;;;;;12886280;22;20027;-91
2023/07/10 18:26:39;;;;;;;1.35;0.95;;;;;;;;;;12883275;23;20083;-88
2023/07/10 18:31:46;;;;;;;1.13;0.70;;;;;;;;;;12889489;22;20024;-88
2023/07/10 18:36:50;;;;;;;0.85;0.63;;;;;;;;;;12880904;23;20047;-89
2023/07/10 18:41:58;;;;;;;1.20;0.70;;;;;;;;;;12911067;22;20020;-88
2023/07/10 18:47:10;;;;;;;3.10;1.08;;;;;;;;;;12909686;22;20371;-89
2023/07/10 18:52:24;;;;;;;1.85;0.80;;;;;;;;;;12886538;22;20024;-88
2023/07/10 18:57:29;;;;;;;0.68;0.65;;;;;;;;;;12904852;22;20099;-87
2023/07/10 19:02:32;;;;;;;0.80;0.60;;;;;;;;;;12878468;23;20024;-86
2023/07/10 19:07:36;;;;;;;1.65;0.90;;;;;;;;;;12870362;22;20058;-86
2023/07/10 19:12:47;;;;;;;1.02;0.77;;;;;;;;;;12901506;22;20024;-86
2023/07/10 19:17:51;;;;;;;1.35;0.90;;;;;;;;;;12871283;22;20450;-91
2023/07/10 19:22:56;;;;;;;1.08;0.63;;;;;;;;;;12883165;22;20020;-88
2023/07/10 19:28:03;;;;;;;1.35;0.90;;;;;;;;;;12880673;22;20027;-89
2023/07/10 19:33:21;;;;;;;1.80;1.00;;;;;;;;;;12882450;22;20020;-91
2023/07/10 19:38:26;;;;;;;2.00;0.73;;;;;;;;;;12881863;22;20042;-89
2023/07/10 19:43:31;;;;;;;;;;;;;;;;;;12886920;22;20043;-90
2023/07/10 19:48:36;;;;;;;0.68;0.60;;;;;;;;;;12879756;22;19991;-90
2023/07/10 19:53:40;;;;;;;2.95;1.00;;;;;;;;;;12879904;22;20024;-89
2023/07/10 19:58:48;;;;;;;1.17;0.80;;;;;;;;;;12875168;22;20031;-89
2023/07/10 20:03:52;;;;;;;1.63;0.90;;;;;;;;;;12908864;22;20035;-89
2023/07/10 20:08:57;;;;;;;1.60;1.05;;;;;;;;;;12881109;22;20034;-89
2023/07/10 20:14:02;;;;;;;2.00;1.00;;;;;;;;;;12878513;22;20024;-89
2023/07/10 20:19:10;;;;;;;1.23;0.80;;;;;;;;;;12879132;22;20053;-89
2023/07/10 20:24:16;;;;;;;1.13;0.82;;;;;;;;;;12864946;22;20020;-90
2023/07/10 20:29:21;;;;;;;;;;;;;;;;;;12880923;22;20394;-88
2023/07/10 20:34:25;;;;;;;1.75;1.00;;;;;;;;;;12907192;22;19915;-91
2023/07/10 20:39:28;;;;;;;1.50;0.90;;;;;;;;;;12884578;22;20032;-91
2023/07/10 20:44:34;;;;;;;1.63;0.80;;;;;;;;;;12884487;22;20099;-92
2023/07/10 20:49:39;;;;;;;1.25;0.90;;;;;;;;;;12883705;22;20104;-91
2023/07/10 20:54:44;;;;;;;1.30;0.88;;;;;;;;;;12886895;22;20506;-92
2023/07/10 20:59:52;;;;;;;1.20;1.00;;;;;;;;;;12916289;22;20032;-92
2023/07/10 21:04:56;;;;;;;2.72;1.48;;;;;;;;;;12888395;22;20103;-91
2023/07/10 21:10:00;;;;;;;2.05;0.70;;;;;;;;;;12885884;22;20024;-93
2023/07/10 21:15:06;;;;;;;0.93;0.82;;;;;;;;;;12884897;22;20104;-92
2023/07/10 21:20:18;;;;;;;1.50;0.85;;;;;;;;;;12885781;22;20043;-93
2023/07/10 21:25:21;;;;;;;2.20;1.05;;;;;;;;;;12886537;22;20024;-91
2023/07/10 21:30:26;;;;;;;1.15;0.80;;;;;;;;;;12885990;22;20044;-91
2023/07/10 21:35:33;;;;;;;1.30;1.00;;;;;;;;;;12886564;22;20099;-91
2023/07/10 21:40:38;;;;;;;1.27;0.80;;;;;;;;;;12912756;22;20020;-90
2023/07/10 21:45:43;;;;;;;1.40;0.90;;;;;;;;;;12913318;22;20031;-92
2023/07/10 21:50:48;;;;;;;1.00;0.90;;;;;;;;;;12889576;22;20084;-90
2023/07/10 21:55:54;;;;;;;1.83;1.00;;;;;;;;;;12887286;23;20024;-90
2023/07/10 22:00:59;;;;;;;0.80;0.70;;;;;;;;;;12914771;22;20024;-90
2023/07/10 22:06:06;;;;;;;1.03;0.80;;;;;;;;;;12913951;22;20024;-90
2023/07/10 22:11:13;;;;;;;2.53;1.00;;;;;;;;;;12887390;22;20107;-90
2023/07/10 22:16:24;;;;;;;2.33;1.05;;;;;;;;;;12886799;23;20095;-90
2023/07/10 22:21:30;;;;;;;1.85;1.05;;;;;;;;;;12872664;23;20020;-90
2023/07/10 22:26:34;;;;;;;1.42;0.98;;;;;;;;;;12886355;23;20345;-90
2023/07/10 22:31:39;;;;;;;1.13;0.98;;;;;;;;;;12885931;22;20020;-90
2023/07/10 22:36:43;;;;;;;1.83;0.80;;;;;;;;;;12883743;23;20055;-89
2023/07/10 22:41:47;;;;;;;1.83;0.88;;;;;;;;;;12911705;22;20036;-90
2023/07/10 22:46:52;;;;;;;1.05;0.90;;;;;;;;;;12913750;22;20557;-90
2023/07/10 22:51:56;;;;;;;2.27;0.80;;;;;;;;;;12887178;22;20036;-90
2023/07/10 22:56:59;;;;;;;2.10;0.80;;;;;;;;;;12913389;22;20087;-90
2023/07/10 23:02:06;;;;;;;1.17;0.85;;;;;;;;;;12885868;22;20024;-90
2023/07/10 23:07:10;;;;;;;1.48;0.80;;;;;;;;;;12887749;23;20111;-90
2023/07/10 23:12:13;;;;;;;2.67;0.88;;;;;;;;;;12887964;22;20016;-89
2023/07/10 23:17:19;;;;;;;2.00;0.93;;;;;;;;;;12888992;23;20099;-90
2023/07/10 23:22:23;;;;;;;1.40;0.93;;;;;;;;;;12887993;22;20024;-88
2023/07/10 23:27:26;;;;;;;1.83;1.17;;;;;;;;;;12889424;23;20032;-90
2023/07/10 23:32:32;;;;;;;1.77;0.98;;;;;;;;;;12886847;23;20070;-90
2023/07/10 23:37:36;;;;;;;1.73;1.23;;;;;;;;;;12888496;22;20024;-90
2023/07/10 23:42:40;;;;;;;1.70;0.98;;;;;;;;;;12888939;22;20020;-89
2023/07/10 23:47:46;;;;;;;1.85;1.00;;;;;;;;;;12887010;22;20079;-89
2023/07/10 23:52:51;;;;;;;1.25;0.95;;;;;;;;;;12888280;22;20515;-90
2023/07/10 23:57:55;;;;;;;0.73;0.57;;;;;;;;;;12888579;22;20039;-90
